Time;durP1;ratioP1;P1;durP2;ratioP2;P2;SDS_P1;SDS_P2;PMS_P1;PMS_P2;Temp;Humidity;BMP_temperature;BMP_pressure;BME280_temperature;BME280_humidity;BME280_pressure;Samples;Min_cycle;Max_cycle;Signal;HPM_P1;HPM_P2
2022/10/16 00:00:39;;;;;;;6.97;6.37;;;15.30;99.90;;;;;;5032186;28;20601;-49
2022/10/16 00:03:05;;;;;;;7.43;6.73;;;15.40;99.90;;;;;;5032978;28;20569;-51
2022/10/16 00:05:31;;;;;;;7.70;7.00;;;15.40;99.90;;;;;;5033311;28;20171;-52
2022/10/16 00:07:56;;;;;;;7.63;6.83;;;15.40;99.90;;;;;;5033608;28;20176;-48
2022/10/16 00:10:22;;;;;;;8.80;6.70;;;15.40;99.90;;;;;;5033225;28;20164;-49
2022/10/16 00:12:48;;;;;;;6.57;5.97;;;15.40;99.90;;;;;;5033220;28;20192;-54
2022/10/16 00:15:14;;;;;;;7.53;6.83;;;15.30;99.90;;;;;;5032979;28;20549;-49
2022/10/16 00:17:40;;;;;;;6.47;5.90;;;15.40;99.90;;;;;;5032907;28;20204;-48
2022/10/16 00:20:06;;;;;;;6.53;5.93;;;15.40;99.90;;;;;;5033364;28;20685;-48
2022/10/16 00:22:32;;;;;;;6.40;5.80;;;15.40;99.90;;;;;;5033133;28;20588;-48
2022/10/16 00:24:57;;;;;;;6.00;5.50;;;15.30;99.90;;;;;;5032779;28;20171;-49
2022/10/16 00:27:23;;;;;;;7.47;6.73;;;15.30;99.90;;;;;;5033049;28;20227;-51
2022/10/16 00:29:52;;;;;;;7.93;7.13;;;15.30;99.90;;;;;;5032946;28;20196;-48
2022/10/16 00:32:19;;;;;;;6.83;6.20;;;15.30;99.90;;;;;;5032640;28;20206;-52
2022/10/16 00:34:45;;;;;;;9.70;6.60;;;15.30;99.90;;;;;;5031986;28;20226;-48
2022/10/16 00:37:11;;;;;;;7.20;6.50;;;15.20;99.90;;;;;;5032680;28;20207;-53
2022/10/16 00:39:37;;;;;;;9.33;7.43;;;15.20;99.90;;;;;;5032689;28;20176;-50
2022/10/16 00:42:02;;;;;;;8.00;7.20;;;15.20;99.90;;;;;;5032662;28;20665;-53
2022/10/16 00:44:49;;;;;;;10.40;8.53;;;15.30;99.90;;;;;;5032385;28;20198;-53
2022/10/16 00:47:27;;;;;;;7.90;7.10;;;15.40;99.90;;;;;;5032539;28;20335;-53
2022/10/16 00:49:57;;;;;;;6.90;6.27;;;15.30;99.90;;;;;;5032447;28;20179;-49
2022/10/16 00:52:23;;;;;;;8.17;6.97;;;15.30;99.90;;;;;;5032216;28;20281;-48
2022/10/16 00:54:50;;;;;;;8.57;7.77;;;15.30;99.90;;;;;;5032165;28;20192;-48
2022/10/16 00:57:15;;;;;;;8.93;7.07;;;15.30;99.90;;;;;;5032293;28;20195;-51
2022/10/16 00:59:42;;;;;;;8.00;7.20;;;15.30;99.90;;;;;;5032280;28;20179;-51
2022/10/16 01:02:15;;;;;;;8.47;7.60;;;15.30;99.90;;;;;;5032277;28;20770;-48
2022/10/16 01:04:59;;;;;;;9.50;7.37;;;15.30;99.90;;;;;;5032025;28;20202;-50
2022/10/16 01:07:52;;;;;;;7.13;6.43;;;15.30;99.90;;;;;;5032234;28;20541;-51
2022/10/16 01:10:35;;;;;;;7.63;6.50;;;15.30;99.90;;;;;;5032155;28;20255;-49
2022/10/16 01:13:06;;;;;;;9.60;8.23;;;15.20;99.90;;;;;;5032109;28;20242;-49
2022/10/16 01:15:54;;;;;;;9.43;7.83;;;15.20;99.90;;;;;;5031977;28;20245;-51
2022/10/16 01:18:43;;;;;;;7.57;6.43;;;15.20;99.90;;;;;;5031845;28;20255;-53
2022/10/16 01:21:34;;;;;;;8.03;7.23;;;15.20;99.90;;;;;;5031909;28;20749;-51
2022/10/16 01:24:22;;;;;;;8.73;7.80;;;15.20;99.90;;;;;;5026965;28;20649;-52
2022/10/16 01:27:16;;;;;;;9.30;8.30;;;15.10;99.90;;;;;;5031946;28;20184;-48
2022/10/16 01:29:42;;;;;;;10.83;7.87;;;15.20;99.90;;;;;;5031800;28;20175;-50
2022/10/16 01:32:33;;;;;;;8.87;7.90;;;15.10;99.90;;;;;;5031758;28;20202;-53
2022/10/16 01:35:09;;;;;;;9.17;7.93;;;15.00;99.90;;;;;;5031489;28;20606;-51
2022/10/16 01:37:42;;;;;;;8.73;7.30;;;15.00;99.90;;;;;;5031821;28;20550;-53
2022/10/16 01:40:12;;;;;;;8.53;6.80;;;14.90;99.90;;;;;;5031665;28;20191;-54
2022/10/16 01:42:42;;;;;;;7.77;6.97;;;14.90;99.90;;;;;;5031563;28;20326;-48
2022/10/16 01:45:12;;;;;;;8.97;7.67;;;14.90;99.90;;;;;;5031254;28;20490;-52
2022/10/16 01:47:39;;;;;;;8.33;6.63;;;14.90;99.90;;;;;;5030126;28;20267;-52
2022/10/16 01:50:07;;;;;;;8.67;7.73;;;14.80;99.90;;;;;;5031412;28;20186;-48
2022/10/16 01:52:36;;;;;;;7.17;6.47;;;14.70;99.90;;;;;;5031277;28;20211;-54
2022/10/16 01:55:05;;;;;;;7.67;6.13;;;14.70;99.90;;;;;;5031458;28;20187;-52
2022/10/16 01:57:32;;;;;;;8.83;7.07;;;14.60;99.90;;;;;;5031162;28;20208;-54
2022/10/16 02:00:03;;;;;;;10.40;8.80;;;14.60;99.90;;;;;;5031277;28;20247;-50
2022/10/16 02:02:31;;;;;;;10.37;7.70;;;14.70;99.90;;;;;;5028731;28;20203;-54
2022/10/16 02:05:20;;;;;;;7.97;7.10;;;14.70;99.90;;;;;;5028611;28;20266;-50
2022/10/16 02:07:46;;;;;;;8.57;7.20;;;14.70;99.90;;;;;;5028983;28;20196;-51
2022/10/16 02:10:12;;;;;;;11.00;7.77;;;14.70;99.90;;;;;;5028805;28;20176;-53
2022/10/16 02:12:44;;;;;;;9.13;7.10;;;14.70;99.90;;;;;;5028844;28;20314;-51
2022/10/16 02:15:09;;;;;;;8.17;7.37;;;14.60;99.90;;;;;;5028613;28;20191;-50
2022/10/16 02:17:35;;;;;;;7.47;6.77;;;14.60;99.90;;;;;;5028651;28;20223;-53
2022/10/16 02:20:01;;;;;;;6.50;5.90;;;14.50;99.90;;;;;;5028597;28;20271;-50
2022/10/16 02:22:36;;;;;;;10.87;6.27;;;14.50;99.90;;;;;;5028573;28;20212;-51
2022/10/16 02:25:10;;;;;;;16.83;7.17;;;14.40;99.90;;;;;;5028488;28;20155;-50
2022/10/16 02:27:51;;;;;;;6.67;5.60;;;14.50;99.90;;;;;;5028754;28;20187;-52
2022/10/16 02:30:27;;;;;;;36.33;9.03;;;14.50;99.90;;;;;;5028743;28;20276;-50
2022/10/16 02:32:55;;;;;;;15.33;6.00;;;14.50;99.90;;;;;;5029117;28;20257;-50
2022/10/16 02:35:23;;;;;;;6.20;5.60;;;14.60;99.90;;;;;;5030637;28;20186;-52
2022/10/16 02:37:50;;;;;;;5.83;5.30;;;14.50;99.90;;;;;;5030889;28;20712;-51
2022/10/16 02:40:17;;;;;;;5.33;4.83;;;14.50;99.90;;;;;;5030926;28;20684;-48
2022/10/16 02:42:43;;;;;;;5.73;5.23;;;14.50;99.90;;;;;;5030837;28;20272;-53
2022/10/16 02:45:10;;;;;;;5.20;4.70;;;14.40;99.90;;;;;;5030650;28;20204;-53
2022/10/16 02:47:36;;;;;;;6.60;5.10;;;14.40;99.90;;;;;;5030678;28;20178;-51
2022/10/16 02:50:02;;;;;;;6.10;5.50;;;14.40;99.90;;;;;;5030810;28;20589;-49
2022/10/16 02:52:28;;;;;;;22.63;7.27;;;14.30;99.90;;;;;;5030638;28;20731;-50
2022/10/16 02:54:54;;;;;;;9.43;6.17;;;14.30;99.90;;;;;;5030547;28;20263;-51
2022/10/16 02:57:19;;;;;;;9.53;5.37;;;14.40;99.90;;;;;;5032135;28;20685;-51
2022/10/16 02:59:45;;;;;;;6.17;5.00;;;14.30;99.90;;;;;;5034548;28;20172;-48
2022/10/16 03:02:10;;;;;;;12.33;6.73;;;14.40;99.90;;;;;;5034465;28;20196;-49
2022/10/16 03:04:36;;;;;;;5.57;5.07;;;14.40;99.90;;;;;;5034049;28;20179;-51
2022/10/16 03:07:02;;;;;;;5.63;5.13;;;14.40;99.90;;;;;;5034472;28;20246;-53
2022/10/16 03:09:27;;;;;;;5.50;5.00;;;14.30;99.90;;;;;;5034367;28;20179;-54
2022/10/16 03:11:53;;;;;;;7.43;5.33;;;14.30;99.90;;;;;;5034431;28;20654;-49
2022/10/16 03:14:19;;;;;;;8.03;6.03;;;14.30;99.90;;;;;;5034076;28;20176;-53
2022/10/16 03:16:44;;;;;;;6.17;5.27;;;14.20;99.90;;;;;;5034223;28;20557;-51
2022/10/16 03:19:10;;;;;;;6.47;5.77;;;14.20;99.90;;;;;;5034018;28;20174;-52
2022/10/16 03:21:35;;;;;;;5.00;4.60;;;14.20;99.90;;;;;;5034156;28;20200;-53
2022/10/16 03:24:01;;;;;;;5.37;4.87;;;14.10;99.90;;;;;;5033940;28;20172;-51
2022/10/16 03:26:27;;;;;;;6.40;5.63;;;14.20;99.90;;;;;;5034115;28;20696;-53
2022/10/16 03:28:52;;;;;;;4.60;4.20;;;14.30;99.90;;;;;;5034022;28;20200;-52
2022/10/16 03:31:18;;;;;;;6.97;4.87;;;14.30;99.90;;;;;;5033873;28;20203;-53
2022/10/16 03:33:43;;;;;;;5.23;4.83;;;14.40;99.90;;;;;;5033505;28;20172;-54
2022/10/16 03:36:09;;;;;;;5.57;5.07;;;14.30;99.90;;;;;;5033897;28;20284;-54
2022/10/16 03:38:34;;;;;;;5.33;4.83;;;14.30;99.90;;;;;;5019121;28;20631;-52
2022/10/16 03:41:00;;;;;;;5.07;4.67;;;14.30;99.90;;;;;;5013883;28;20196;-53
2022/10/16 03:43:26;;;;;;;5.03;4.63;;;14.20;99.90;;;;;;5013830;28;20329;-53
2022/10/16 03:45:51;;;;;;;4.80;4.40;;;14.20;99.90;;;;;;5013956;28;20177;-52
2022/10/16 03:48:18;;;;;;;5.23;4.77;;;14.10;99.90;;;;;;5013711;28;20549;-55
2022/10/16 03:50:44;;;;;;;9.13;6.07;;;14.10;99.90;;;;;;5013854;28;20201;-54
2022/10/16 03:53:09;;;;;;;5.83;4.83;;;14.10;99.90;;;;;;5013427;28;20296;-52
2022/10/16 03:55:35;;;;;;;5.27;4.63;;;14.20;99.90;;;;;;5013735;28;20541;-55
2022/10/16 03:58:01;;;;;;;5.30;4.80;;;14.20;99.90;;;;;;5013820;28;20213;-54
2022/10/16 04:00:27;;;;;;;6.43;4.83;;;14.10;99.90;;;;;;5013550;28;20168;-53
2022/10/16 04:02:53;;;;;;;5.47;4.90;;;14.00;99.90;;;;;;5013387;28;20508;-55
2022/10/16 04:05:18;;;;;;;5.43;4.93;;;14.00;99.90;;;;;;5013380;28;20585;-53
2022/10/16 04:07:44;;;;;;;5.03;4.63;;;14.00;99.90;;;;;;5013372;28;20634;-52
2022/10/16 04:10:10;;;;;;;5.73;5.23;;;14.10;99.90;;;;;;5012759;28;20183;-47
2022/10/16 04:12:36;;;;;;;5.80;5.30;;;14.10;99.90;;;;;;5013440;28;20188;-48
2022/10/16 04:15:01;;;;;;;6.17;5.57;;;14.00;99.90;;;;;;5013117;28;20168;-50
2022/10/16 04:17:27;;;;;;;5.23;4.83;;;14.00;99.90;;;;;;5013248;28;20250;-48
2022/10/16 04:19:53;;;;;;;5.27;4.87;;;14.00;99.90;;;;;;5013177;28;20173;-53
2022/10/16 04:22:18;;;;;;;6.43;5.43;;;14.00;99.90;;;;;;5013268;28;20189;-50
2022/10/16 04:24:44;;;;;;;6.40;5.23;;;14.10;99.90;;;;;;5012944;28;20267;-50
2022/10/16 04:27:09;;;;;;;20.97;6.30;;;14.10;99.90;;;;;;5013245;28;20180;-49
2022/10/16 04:29:35;;;;;;;5.53;5.03;;;14.00;99.90;;;;;;5013197;28;20179;-50
2022/10/16 04:32:00;;;;;;;5.70;5.20;;;14.00;99.90;;;;;;5012928;28;20200;-48
2022/10/16 04:34:26;;;;;;;5.87;5.37;;;14.00;99.90;;;;;;5012659;28;20247;-52
2022/10/16 04:36:51;;;;;;;5.73;5.23;;;14.00;99.90;;;;;;5012969;28;20387;-48
2022/10/16 04:39:17;;;;;;;17.50;6.40;;;14.00;99.90;;;;;;5012943;28;20173;-50
2022/10/16 04:41:43;;;;;;;6.07;5.50;;;14.00;99.90;;;;;;5012870;28;20715;-48
2022/10/16 04:44:08;;;;;;;5.83;5.33;;;14.10;99.90;;;;;;5012609;28;20179;-49
2022/10/16 04:46:34;;;;;;;5.67;5.17;;;14.10;99.90;;;;;;5012674;28;20547;-49
2022/10/16 04:49:00;;;;;;;6.43;5.03;;;14.00;99.90;;;;;;5012641;28;20212;-48
2022/10/16 04:51:27;;;;;;;6.10;5.50;;;14.00;99.90;;;;;;5013151;28;20204;-58
2022/10/16 04:53:54;;;;;;;10.27;5.67;;;14.00;99.90;;;;;;5012729;28;20622;-49
2022/10/16 04:56:21;;;;;;;6.23;5.73;;;14.00;99.90;;;;;;5012557;28;20203;-50
2022/10/16 04:58:46;;;;;;;5.30;4.87;;;14.00;99.90;;;;;;5012662;28;20171;-50
2022/10/16 05:01:12;;;;;;;4.90;4.50;;;14.00;99.90;;;;;;5012470;28;20248;-49
2022/10/16 05:03:38;;;;;;;9.10;5.13;;;14.00;99.90;;;;;;5012166;28;20169;-48
2022/10/16 05:06:06;;;;;;;5.03;4.50;;;14.00;99.90;;;;;;5012512;28;20187;-51
2022/10/16 05:08:31;;;;;;;12.27;5.57;;;13.90;99.90;;;;;;5012471;28;20230;-51
2022/10/16 05:10:57;;;;;;;5.33;4.83;;;13.90;99.90;;;;;;5012323;28;20172;-50
2022/10/16 05:13:23;;;;;;;5.13;4.70;;;14.10;99.90;;;;;;5012086;28;20177;-52
2022/10/16 05:15:49;;;;;;;7.90;5.70;;;14.10;99.90;;;;;;5012239;28;20231;-50
2022/10/16 05:18:15;;;;;;;13.10;5.63;;;14.00;99.90;;;;;;5012144;28;20173;-49
2022/10/16 05:20:41;;;;;;;19.57;6.47;;;14.00;99.90;;;;;;5011917;28;20226;-50
2022/10/16 05:23:07;;;;;;;5.00;4.60;;;13.90;99.90;;;;;;5011858;28;20193;-50
2022/10/16 05:25:33;;;;;;;4.83;4.43;;;13.90;99.90;;;;;;5012222;28;20561;-49
2022/10/16 05:27:58;;;;;;;5.43;4.97;;;13.90;99.90;;;;;;5012098;28;20360;-50
2022/10/16 05:30:24;;;;;;;5.67;5.17;;;13.90;99.90;;;;;;5011916;28;20541;-48
2022/10/16 05:32:50;;;;;;;5.50;5.00;;;13.90;99.90;;;;;;5011876;28;20259;-50
2022/10/16 05:35:17;;;;;;;14.23;5.20;;;14.00;99.90;;;;;;5011758;28;20258;-48
2022/10/16 05:37:43;;;;;;;6.90;5.97;;;13.90;99.90;;;;;;5011895;28;20308;-50
2022/10/16 05:40:09;;;;;;;6.43;5.87;;;13.90;99.90;;;;;;5011913;28;20693;-48
2022/10/16 05:42:35;;;;;;;7.73;5.60;;;14.00;99.90;;;;;;5011755;28;20566;-50
2022/10/16 05:45:01;;;;;;;10.90;7.20;;;14.00;99.90;;;;;;5011468;28;20177;-50
2022/10/16 05:47:26;;;;;;;9.40;8.50;;;13.90;99.90;;;;;;5011869;28;20169;-51
2022/10/16 05:49:53;;;;;;;22.53;11.07;;;14.00;99.90;;;;;;5011642;28;20653;-48
2022/10/16 05:52:18;;;;;;;9.43;8.47;;;13.90;99.90;;;;;;5011505;28;20211;-50
2022/10/16 05:54:44;;;;;;;12.27;7.40;;;13.90;99.90;;;;;;5011436;28;20222;-51
2022/10/16 05:57:09;;;;;;;8.80;7.97;;;13.90;99.90;;;;;;5011519;28;20736;-48
2022/10/16 05:59:35;;;;;;;9.50;6.87;;;13.90;99.90;;;;;;5011516;28;20203;-52
2022/10/16 06:02:00;;;;;;;8.97;6.20;;;14.00;99.90;;;;;;5011545;28;20216;-50
2022/10/16 06:04:26;;;;;;;11.50;6.40;;;14.00;99.90;;;;;;5011175;28;20618;-50
2022/10/16 06:06:52;;;;;;;7.00;6.27;;;14.00;99.90;;;;;;5011580;28;20211;-50
2022/10/16 06:09:17;;;;;;;7.37;6.67;;;13.90;99.90;;;;;;5011456;28;20179;-48
2022/10/16 06:11:43;;;;;;;7.17;6.47;;;14.00;99.90;;;;;;5011452;28;20192;-49
2022/10/16 06:14:08;;;;;;;8.80;6.47;;;14.00;99.90;;;;;;5011087;28;20184;-49
2022/10/16 06:16:37;;;;;;;10.87;6.20;;;14.00;99.90;;;;;;5011419;28;20204;-49
2022/10/16 06:19:06;;;;;;;52.53;7.67;;;14.10;99.90;;;;;;5011285;28;20573;-50
2022/10/16 06:21:32;;;;;;;8.33;7.53;;;14.10;99.90;;;;;;5011263;28;20223;-48
2022/10/16 06:23:58;;;;;;;11.27;7.77;;;14.00;99.90;;;;;;5011007;28;20716;-48
2022/10/16 06:26:27;;;;;;;9.50;7.67;;;14.00;99.90;;;;;;5011302;28;20179;-53
2022/10/16 06:28:55;;;;;;;16.43;7.37;;;14.00;99.90;;;;;;5011231;28;20177;-50
2022/10/16 06:31:21;;;;;;;7.57;6.83;;;14.10;99.90;;;;;;5011296;28;20200;-48
2022/10/16 06:33:50;;;;;;;7.00;6.40;;;14.20;99.90;;;;;;5014821;28;20172;-53
2022/10/16 06:36:17;;;;;;;7.70;7.00;;;14.30;99.90;;;;;;5015164;28;20662;-53
2022/10/16 06:38:43;;;;;;;8.27;6.83;;;14.50;99.90;;;;;;5015238;28;20175;-48
2022/10/16 06:41:14;;;;;;;9.63;8.73;;;14.50;99.90;;;;;;5014997;28;20223;-50
2022/10/16 06:43:39;;;;;;;7.57;6.87;;;14.60;99.90;;;;;;5015043;28;20208;-48
2022/10/16 06:46:07;;;;;;;6.60;6.00;;;14.60;99.90;;;;;;5015124;28;20251;-50
2022/10/16 06:48:33;;;;;;;7.53;5.43;;;14.70;99.90;;;;;;5014948;28;20180;-51
2022/10/16 06:51:00;;;;;;;6.17;5.30;;;14.80;99.90;;;;;;5014790;28;20252;-48
2022/10/16 06:53:28;;;;;;;7.00;6.30;;;14.90;99.90;;;;;;5014586;28;20177;-51
2022/10/16 06:55:53;;;;;;;6.40;5.07;;;14.90;99.90;;;;;;5014834;28;20177;-48
2022/10/16 06:58:19;;;;;;;7.70;6.90;;;15.00;99.90;;;;;;5014883;28;20234;-50
2022/10/16 07:00:45;;;;;;;9.77;6.37;;;14.90;99.90;;;;;;5014886;28;20193;-48
2022/10/16 07:03:11;;;;;;;6.70;5.63;;;14.90;99.90;;;;;;5014437;28;20247;-48
2022/10/16 07:05:43;;;;;;;8.37;7.00;;;14.90;99.90;;;;;;5014760;28;20177;-50
2022/10/16 07:08:09;;;;;;;6.30;5.70;;;15.00;99.90;;;;;;5014544;28;20658;-50
2022/10/16 07:10:35;;;;;;;7.67;6.53;;;15.00;99.90;;;;;;5014825;28;20188;-48
2022/10/16 07:13:01;;;;;;;7.67;6.97;;;14.90;99.90;;;;;;5014674;28;20196;-49
2022/10/16 07:15:27;;;;;;;6.80;6.10;;;14.90;99.90;;;;;;5014319;28;20165;-49
2022/10/16 07:17:52;;;;;;;8.97;8.07;;;14.90;99.90;;;;;;5014348;28;20684;-52
2022/10/16 07:20:18;;;;;;;12.40;7.53;;;14.80;99.90;;;;;;5014425;28;20190;-50
2022/10/16 07:22:43;;;;;;;7.77;7.07;;;14.80;99.90;;;;;;5013049;28;20527;-47
2022/10/16 07:25:09;;;;;;;7.33;6.63;;;14.80;99.90;;;;;;5013951;28;20180;-51
2022/10/16 07:27:35;;;;;;;9.03;7.73;;;14.80;99.90;;;;;;5014410;28;20573;-52
2022/10/16 07:30:00;;;;;;;9.87;7.90;;;14.80;99.90;;;;;;5014222;28;20542;-52
2022/10/16 07:32:26;;;;;;;8.93;8.03;;;14.90;99.90;;;;;;5014211;28;20203;-49
2022/10/16 07:34:52;;;;;;;8.50;7.73;;;15.00;99.90;;;;;;5013210;28;20176;-49
2022/10/16 07:37:18;;;;;;;9.30;8.30;;;15.00;99.90;;;;;;5013394;28;20199;-55
2022/10/16 07:39:44;;;;;;;11.57;9.57;;;15.00;99.90;;;;;;5012349;28;20167;-51
2022/10/16 07:42:09;;;;;;;10.20;9.20;;;15.00;99.90;;;;;;5013280;28;20193;-51
2022/10/16 07:44:35;;;;;;;8.90;8.00;;;14.90;99.90;;;;;;5013564;28;20176;-50
2022/10/16 07:47:00;;;;;;;9.17;7.80;;;15.00;99.90;;;;;;5013990;28;20538;-48
2022/10/16 07:49:26;;;;;;;8.93;8.00;;;15.10;99.90;;;;;;5013794;28;20235;-53
2022/10/16 07:51:51;;;;;;;8.20;7.40;;;15.00;99.90;;;;;;5013645;28;20650;-49
2022/10/16 07:54:17;;;;;;;8.50;7.60;;;15.10;99.90;;;;;;5013606;28;20192;-53
2022/10/16 07:56:43;;;;;;;9.13;7.90;;;15.20;99.90;;;;;;5013716;28;20284;-52
2022/10/16 07:59:08;;;;;;;8.83;7.93;;;15.40;99.90;;;;;;5013714;28;20173;-48
2022/10/16 08:01:34;;;;;;;8.93;7.77;;;15.50;99.90;;;;;;5013669;28;20189;-51
2022/10/16 08:03:59;;;;;;;8.20;7.40;;;15.60;99.90;;;;;;5013243;28;20170;-53
2022/10/16 08:06:25;;;;;;;8.23;7.37;;;16.10;99.90;;;;;;5013644;28;20175;-53
2022/10/16 08:08:51;;;;;;;7.73;6.93;;;17.30;99.90;;;;;;5013631;28;20181;-55
2022/10/16 08:11:17;;;;;;;7.40;6.70;;;18.30;99.90;;;;;;5013329;28;20205;-49
2022/10/16 08:13:43;;;;;;;7.83;6.63;;;18.60;99.90;;;;;;5013089;28;20177;-51
2022/10/16 08:16:09;;;;;;;7.07;6.47;;;18.70;99.90;;;;;;5013423;28;20196;-53
2022/10/16 08:18:36;;;;;;;8.87;7.03;;;18.60;99.90;;;;;;5013326;28;20172;-50
2022/10/16 08:21:03;;;;;;;7.30;6.47;;;18.60;99.90;;;;;;5013262;28;20172;-50
2022/10/16 08:23:28;;;;;;;9.07;6.53;;;18.80;99.90;;;;;;5013068;28;20184;-55
2022/10/16 08:25:55;;;;;;;6.63;5.93;;;19.40;99.90;;;;;;5013235;28;20542;-50
2022/10/16 08:28:22;;;;;;;8.30;5.88;;;19.80;99.90;;;;;;5013332;28;20280;-52
2022/10/16 08:30:47;;;;;;;11.63;7.18;;;20.20;99.90;;;;;;5013282;28;20172;-53
2022/10/16 08:33:14;;;;;;;6.05;5.45;;;20.30;99.90;;;;;;5012675;28;20192;-51
2022/10/16 08:35:39;;;;;;;6.35;5.70;;;20.90;99.90;;;;;;5013038;28;20185;-54
2022/10/16 08:38:06;;;;;;;6.68;5.97;;;21.30;99.90;;;;;;5013007;28;20205;-53
2022/10/16 08:40:34;;;;;;;5.70;5.20;;;21.40;99.90;;;;;;5012897;28;20646;-54
2022/10/16 08:43:51;;;;;;;7.05;5.53;;;21.50;99.90;;;;;;5012841;28;20685;-53
2022/10/16 08:46:40;;;;;;;5.75;4.95;;;22.50;99.90;;;;;;4971452;28;20228;-53
2022/10/16 08:49:13;;;;;;;5.68;4.97;;;22.90;99.90;;;;;;4971417;28;20182;-48
2022/10/16 08:51:39;;;;;;;6.75;4.88;;;22.50;99.90;;;;;;4971348;28;20245;-53
2022/10/16 08:54:14;;;;;;;7.53;5.22;;;22.80;99.90;;;;;;4971016;28;20233;-53
2022/10/16 08:56:39;;;;;;;5.35;4.85;;;22.90;99.90;;;;;;4970973;28;20217;-50
2022/10/16 08:59:10;;;;;;;5.90;4.68;;;22.80;99.90;;;;;;4971187;28;20170;-53
2022/10/16 09:01:48;;;;;;;4.65;3.88;;;22.90;99.90;;;;;;4971278;28;20249;-52
2022/10/16 09:04:35;;;;;;;4.95;4.45;;;23.50;99.90;;;;;;4970817;28;20201;-53
2022/10/16 09:07:24;;;;;;;5.70;3.80;;;24.10;99.90;;;;;;4971091;28;20240;-51
2022/10/16 09:10:15;;;;;;;4.00;3.65;;;24.90;99.90;;;;;;4970977;28;20192;-54
2022/10/16 09:13:13;;;;;;;4.97;4.00;;;25.90;99.90;;;;;;4970910;28;20197;-51
2022/10/16 09:16:14;;;;;;;4.38;3.90;;;25.50;99.90;;;;;;4894512;29;20199;-54
2022/10/16 09:19:03;;;;;;;4.55;4.15;;;24.60;99.90;;;;;;4856977;29;20202;-50
2022/10/16 09:21:32;;;;;;;6.55;4.68;;;23.80;99.90;;;;;;4851026;29;20207;-55
2022/10/16 09:24:09;;;;;;;5.97;4.15;;;23.50;99.90;;;;;;4838596;29;20194;-55
2022/10/16 09:26:35;;;;;;;4.13;3.72;;;23.20;99.90;;;;;;4838763;29;20195;-52
2022/10/16 09:29:00;;;;;;;5.80;4.55;;;23.30;99.90;;;;;;4838929;29;20240;-53
2022/10/16 09:31:26;;;;;;;6.53;4.28;;;23.70;99.90;;;;;;4838918;29;20202;-55
2022/10/16 09:33:59;;;;;;;4.15;3.85;;;24.50;99.90;;;;;;4838368;29;20705;-55
2022/10/16 09:36:27;;;;;;;4.13;3.72;;;26.30;99.90;;;;;;4838874;29;20218;-53
2022/10/16 09:39:03;;;;;;;3.75;3.42;;;28.50;99.90;;;;;;4838734;29;20194;-55
2022/10/16 09:41:29;;;;;;;5.57;3.20;;;30.00;99.90;;;;;;4838653;29;20285;-56
2022/10/16 09:43:59;;;;;;;3.30;3.00;;;33.10;99.90;;;;;;4838386;29;20582;-56
2022/10/16 09:46:32;;;;;;;3.22;2.90;;;35.50;96.50;;;;;;4838367;29;20202;-52
2022/10/16 09:49:04;;;;;;;3.90;3.20;;;36.80;93.00;;;;;;4838288;29;20408;-54
2022/10/16 09:51:36;;;;;;;3.45;3.10;;;37.50;90.40;;;;;;4868806;29;20221;-56
2022/10/16 09:54:13;;;;;;;2.92;2.72;;;38.50;83.90;;;;;;4950871;29;20261;-53
2022/10/16 09:56:39;;;;;;;2.70;2.50;;;38.10;83.30;;;;;;5003604;28;20223;-57
2022/10/16 09:59:23;;;;;;;3.00;2.80;;;37.30;83.40;;;;;;5011625;28;20527;-51
2022/10/16 10:01:51;;;;;;;2.78;2.58;;;36.20;82.10;;;;;;5011801;28;20284;-56
2022/10/16 10:04:19;;;;;;;2.97;2.67;;;36.30;87.20;;;;;;5011335;28;20168;-56
2022/10/16 10:06:46;;;;;;;2.65;2.45;;;37.90;83.10;;;;;;5010762;28;20541;-56
2022/10/16 10:09:24;;;;;;;4.07;2.60;;;39.50;80.20;;;;;;5011576;28;20320;-56
2022/10/16 10:11:56;;;;;;;2.67;2.47;;;41.40;72.60;;;;;;5011568;28;20263;-53
2022/10/16 10:14:23;;;;;;;3.65;2.55;;;41.00;69.40;;;;;;5011362;28;20226;-52
2022/10/16 10:16:50;;;;;;;2.70;2.50;;;41.10;70.60;;;;;;5011642;28;20230;-52
2022/10/16 10:19:21;;;;;;;2.50;2.30;;;41.80;69.50;;;;;;5011491;28;20660;-55
2022/10/16 10:21:47;;;;;;;4.45;2.75;;;42.50;65.80;;;;;;5011473;28;20667;-51
2022/10/16 10:24:14;;;;;;;4.20;2.60;;;42.10;66.10;;;;;;5011285;28;20183;-55
2022/10/16 10:27:06;;;;;;;2.70;2.50;;;41.40;63.30;;;;;;5011597;28;20852;-55
2022/10/16 10:29:47;;;;;;;2.50;2.30;;;40.20;65.70;;;;;;5011893;28;20175;-52
2022/10/16 10:32:23;;;;;;;3.17;2.70;;;40.80;67.10;;;;;;5011538;28;20592;-55
2022/10/16 10:35:05;;;;;;;2.40;2.25;;;40.40;65.20;;;;;;5011468;28;20184;-51
2022/10/16 10:37:49;;;;;;;3.08;2.53;;;40.70;66.40;;;;;;5011601;28;20203;-57
2022/10/16 10:40:59;;;;;;;3.92;2.60;;;41.50;65.20;;;;;;5011501;28;20169;-56
2022/10/16 10:43:33;;;;;;;4.40;2.42;;;42.40;62.80;;;;;;4969897;28;20188;-57
2022/10/16 10:46:04;;;;;;;2.17;2.08;;;42.10;62.30;;;;;;4970249;28;20184;-52
2022/10/16 10:48:49;;;;;;;2.55;2.35;;;41.80;63.20;;;;;;4970034;28;20181;-53
2022/10/16 10:51:44;;;;;;;2.70;2.50;;;40.80;63.70;;;;;;4969960;28;20189;-55
2022/10/16 10:54:46;;;;;;;3.58;2.22;;;40.30;62.50;;;;;;5034874;23;20277;-60
2022/10/16 10:57:23;;;;;;;2.90;2.30;;;39.10;66.60;;;;;;4968796;28;20232;-60
2022/10/16 11:00:17;;;;;;;2.80;2.58;;;39.60;65.00;;;;;;4970145;28;20282;-59
2022/10/16 11:02:46;;;;;;;3.90;2.50;;;40.20;64.30;;;;;;4969822;28;20280;-61
2022/10/16 11:05:37;;;;;;;2.78;2.50;;;39.90;65.50;;;;;;4969658;28;20185;-60
2022/10/16 11:08:20;;;;;;;2.35;2.20;;;40.00;64.80;;;;;;4969911;28;20287;-61
2022/10/16 11:10:57;;;;;;;2.63;2.28;;;40.60;64.30;;;;;;4969828;28;20265;-60
2022/10/16 11:13:31;;;;;;;2.92;2.30;;;40.70;62.80;;;;;;4969489;28;20308;-60
2022/10/16 11:16:01;;;;;;;2.35;2.25;;;41.50;63.20;;;;;;4969939;28;20563;-61
2022/10/16 11:18:57;;;;;;;2.50;2.30;;;40.80;62.20;;;;;;4971335;28;20179;-61
2022/10/16 11:21:25;;;;;;;2.70;2.50;;;41.60;62.40;;;;;;4973569;28;20511;-62
2022/10/16 11:24:10;;;;;;;2.47;2.28;;;41.90;61.70;;;;;;4973046;28;20272;-61
2022/10/16 11:26:41;;;;;;;2.60;2.38;;;42.40;61.20;;;;;;4973119;28;20288;-61
2022/10/16 11:29:19;;;;;;;3.05;2.58;;;42.40;59.60;;;;;;4972991;28;20182;-60
2022/10/16 11:31:50;;;;;;;5.10;2.60;;;42.10;60.20;;;;;;4973153;28;20320;-61
2022/10/16 11:34:31;;;;;;;2.83;2.55;;;40.90;60.70;;;;;;5020357;28;20180;-60
2022/10/16 11:37:08;;;;;;;2.53;2.33;;;40.60;62.50;;;;;;5034294;28;20198;-61
2022/10/16 11:39:34;;;;;;;3.17;2.85;;;40.40;62.50;;;;;;5034194;28;20509;-61
2022/10/16 11:42:20;;;;;;;2.30;2.20;;;40.00;62.30;;;;;;5034335;28;20179;-61
2022/10/16 11:44:54;;;;;;;2.90;2.45;;;39.80;64.20;;;;;;5033627;28;20557;-60
2022/10/16 11:47:37;;;;;;;4.28;2.38;;;39.40;61.90;;;;;;5034044;28;20198;-61
2022/10/16 11:50:35;;;;;;;4.15;3.22;;;38.80;66.20;;;;;;5034137;28;20628;-60
2022/10/16 11:53:20;;;;;;;2.65;2.45;;;38.30;63.10;;;;;;5033753;28;20206;-62
2022/10/16 11:55:46;;;;;;;3.22;2.50;;;37.80;65.90;;;;;;5034219;28;20206;-61
2022/10/16 11:58:26;;;;;;;3.95;2.97;;;37.60;66.80;;;;;;5034198;28;20195;-61
2022/10/16 12:01:06;;;;;;;3.28;3.00;;;37.60;66.70;;;;;;5033694;28;20178;-59
2022/10/16 12:03:39;;;;;;;3.28;2.95;;;36.80;66.90;;;;;;5033483;28;20335;-60
2022/10/16 12:06:28;;;;;;;5.38;2.78;;;35.90;69.10;;;;;;5033683;28;20171;-60
2022/10/16 12:08:54;;;;;;;2.88;2.58;;;35.90;69.50;;;;;;4991981;28;20239;-60
2022/10/16 12:11:36;;;;;;;3.17;2.60;;;34.90;71.40;;;;;;4991871;28;20586;-61
2022/10/16 12:14:17;;;;;;;2.90;2.70;;;34.50;74.30;;;;;;4991653;28;20200;-60
2022/10/16 12:16:56;;;;;;;2.97;2.53;;;34.10;75.50;;;;;;4991912;28;20177;-60
2022/10/16 12:19:24;;;;;;;3.00;2.80;;;34.20;78.00;;;;;;4991856;28;20200;-61
2022/10/16 12:21:51;;;;;;;2.88;2.60;;;34.50;73.50;;;;;;4991666;28;20207;-60
2022/10/16 12:24:41;;;;;;;3.13;2.70;;;34.60;74.00;;;;;;4991569;28;20659;-59
2022/10/16 12:27:30;;;;;;;2.75;2.55;;;34.20;74.60;;;;;;4991572;28;20224;-60
2022/10/16 12:29:59;;;;;;;3.00;2.80;;;34.30;76.90;;;;;;4990708;28;20361;-59
2022/10/16 12:32:43;;;;;;;2.75;2.53;;;34.70;75.90;;;;;;4991486;28;20261;-59
2022/10/16 12:35:27;;;;;;;3.67;2.90;;;33.90;77.30;;;;;;4991270;28;20176;-60
2022/10/16 12:37:53;;;;;;;3.75;2.70;;;33.80;78.70;;;;;;4991602;28;20212;-60
2022/10/16 12:40:24;;;;;;;4.05;2.60;;;34.00;77.40;;;;;;4991293;28;20260;-59
2022/10/16 12:42:50;;;;;;;3.17;2.35;;;34.30;74.80;;;;;;4991445;28;20204;-60
2022/10/16 12:45:33;;;;;;;2.72;2.53;;;34.40;75.70;;;;;;5000748;28;20290;-60
2022/10/16 12:48:01;;;;;;;2.85;2.20;;;34.30;75.20;;;;;;5032951;28;20230;-59
2022/10/16 12:50:35;;;;;;;2.35;2.13;;;34.00;75.60;;;;;;5032858;28;20225;-60
2022/10/16 12:53:03;;;;;;;2.40;2.10;;;34.50;77.30;;;;;;5032701;28;20219;-60
2022/10/16 12:55:43;;;;;;;2.50;2.30;;;34.30;75.30;;;;;;5032961;28;20237;-60
2022/10/16 12:58:34;;;;;;;2.83;2.63;;;34.20;77.70;;;;;;5032686;28;20174;-60
2022/10/16 13:01:38;;;;;;;2.75;2.50;;;34.10;75.90;;;;;;5032987;28;20214;-60
2022/10/16 13:04:31;;;;;;;2.97;2.22;;;34.00;76.50;;;;;;4990536;28;20196;-60